Time;durP1;ratioP1;P1;durP2;ratioP2;P2;SDS_P1;SDS_P2;PMS_P1;PMS_P2;Temp;Humidity;BMP_temperature;BMP_pressure;BME280_temperature;BME280_humidity;BME280_pressure;Samples;Min_cycle;Max_cycle;Signal;HPM_P1;HPM_P2
2023/07/27 00:00:40;;;;;;;3.40;2.30;;;;;;;19.64;85.80;97559.14;105629;1259;61169;-22
2023/07/27 00:03:07;;;;;;;3.10;2.70;;;;;;;19.82;85.94;97556.23;105828;1256;73865;-22
2023/07/27 00:05:34;;;;;;;7.20;2.80;;;;;;;19.97;84.69;97549.89;105769;1256;74394;-23
2023/07/27 00:08:01;;;;;;;7.00;2.80;;;;;;;19.93;85.02;97546.91;105559;1254;72632;-22
2023/07/27 00:10:28;;;;;;;6.70;2.80;;;;;;;19.82;85.34;97543.70;105820;1254;61106;-22
2023/07/27 00:12:55;;;;;;;4.30;2.30;;;;;;;19.65;86.27;97539.63;105898;1256;61084;-22
2023/07/27 00:15:22;;;;;;;2.80;2.10;;;;;;;19.99;85.44;97538.67;105699;1254;73904;-22
2023/07/27 00:17:49;;;;;;;3.60;2.60;;;;;;;20.37;83.16;97534.35;105786;1254;74815;-23
2023/07/27 00:20:16;;;;;;;4.70;2.30;;;;;;;20.34;82.29;97537.64;105626;1256;73164;-22
2023/07/27 00:22:43;;;;;;;3.40;2.90;;;;;;;20.15;82.32;97539.25;105609;1254;60982;-22
2023/07/27 00:25:10;;;;;;;5.80;2.90;;;;;;;19.89;83.07;97540.10;105653;1255;61170;-22
2023/07/27 00:27:37;;;;;;;4.00;2.00;;;;;;;19.66;84.50;97547.78;105839;1256;73791;-22
2023/07/27 00:30:04;;;;;;;4.30;2.10;;;;;;;20.09;84.24;97542.00;105842;1257;74230;-23
2023/07/27 00:32:32;;;;;;;3.90;2.20;;;;;;;20.58;81.94;97536.85;105546;1259;72643;-22
2023/07/27 00:35:00;;;;;;;3.50;2.30;;;;;;;20.58;80.91;97535.91;105838;1255;61143;-22
2023/07/27 00:37:27;;;;;;;3.40;2.40;;;;;;;20.40;80.48;97539.41;105847;1257;61154;-23
2023/07/27 00:39:53;;;;;;;4.90;2.50;;;;;;;20.17;80.98;97537.77;105678;1254;73872;-23
2023/07/27 00:42:20;;;;;;;3.90;2.20;;;;;;;19.96;81.87;97533.15;105767;1255;74291;-22
2023/07/27 00:44:47;;;;;;;3.30;2.20;;;;;;;20.25;81.74;97530.05;105870;1255;72509;-22
2023/07/27 00:47:14;;;;;;;4.50;2.40;;;;;;;20.56;80.57;97525.41;105559;1256;61112;-22
2023/07/27 00:49:41;;;;;;;5.20;2.90;;;;;;;20.53;79.64;97532.56;105680;1257;61148;-22
2023/07/27 00:52:08;;;;;;;7.40;2.50;;;;;;;20.22;79.65;97531.55;105666;1254;74263;-23
2023/07/27 00:54:35;;;;;;;7.50;3.10;;;;;;;19.80;81.88;97530.05;105797;1256;74150;-22
2023/07/27 00:57:03;;;;;;;6.10;2.40;;;;;;;19.55;82.64;97523.95;105620;1254;72908;-22
2023/07/27 00:59:30;;;;;;;4.50;2.30;;;;;;;19.93;83.08;97517.33;105618;1252;61172;-24
2023/07/27 01:01:57;;;;;;;3.80;2.50;;;;;;;20.35;81.72;97514.30;105647;1257;61175;-23
2023/07/27 01:04:24;;;;;;;3.40;2.60;;;;;;;20.35;80.80;97509.86;105515;1254;73763;-23
2023/07/27 01:06:51;;;;;;;5.50;2.60;;;;;;;20.16;80.33;97509.96;105697;1256;74351;-23
2023/07/27 01:09:17;;;;;;;4.40;2.90;;;;;;;19.91;80.41;97501.64;105804;1254;72661;-23
2023/07/27 01:11:55;;;;;;;4.10;2.10;;;;;;;19.63;81.56;97493.59;105647;1258;61709;-22
2023/07/27 01:14:25;;;;;;;3.20;2.30;;;;;;;19.92;82.58;97495.11;105490;1260;61163;-23
2023/07/27 01:17:12;;;;;;;6.20;2.20;;;;;;;20.31;81.31;97493.69;105919;1255;75091;-23
2023/07/27 01:20:15;;;;;;;5.30;2.70;;;;;;;20.27;79.95;97497.24;105734;1254;74336;-22
2023/07/27 01:22:59;;;;;;;4.50;2.60;;;;;;;20.05;80.15;97495.31;105536;1257;72541;-22
2023/07/27 01:25:39;;;;;;;6.60;3.10;;;;;;;19.82;80.70;97493.36;105780;1255;61137;-23
2023/07/27 01:28:05;;;;;;;6.00;1.80;;;;;;;19.60;81.88;97489.45;105808;1257;61151;-23
2023/07/27 01:30:41;;;;;;;4.20;2.00;;;;;;;20.02;82.12;97490.61;105771;1254;73719;-22
2023/07/27 01:33:09;;;;;;;4.50;2.40;;;;;;;20.45;81.00;97485.71;105868;1255;74302;-23
2023/07/27 01:35:40;;;;;;;4.10;2.80;;;;;;;20.51;80.59;97480.05;105739;1257;73258;-23
2023/07/27 01:38:07;;;;;;;4.80;3.70;;;;;;;20.37;80.52;97476.73;105865;1254;61198;-23
2023/07/27 01:40:34;;;;;;;5.30;3.90;;;;;;;20.06;81.11;97477.35;105810;1257;61122;-22
2023/07/27 01:43:01;;;;;;;6.20;3.90;;;;;;;19.82;82.48;97479.10;105858;1253;73777;-22
2023/07/27 01:45:28;;;;;;;7.80;3.90;;;;;;;20.14;82.48;97479.02;105852;1254;74674;-22
2023/07/27 01:47:54;;;;;;;7.70;4.90;;;;;;;20.47;81.28;97480.27;105525;1255;72532;-22
2023/07/27 01:50:21;;;;;;;8.50;4.90;;;;;;;20.31;81.22;97479.58;105712;1254;61000;-23
2023/07/27 01:52:48;;;;;;;10.90;6.10;;;;;;;19.81;83.34;97476.92;105538;1257;61100;-23
2023/07/27 01:55:17;;;;;;;11.20;5.60;;;;;;;19.39;85.38;97477.71;105707;1255;73671;-22
2023/07/27 01:57:44;;;;;;;6.80;5.00;;;;;;;19.12;88.08;97481.33;105669;1254;74244;-23
2023/07/27 02:00:12;;;;;;;6.90;5.00;;;;;;;19.45;86.80;97478.20;105574;1257;73107;-23
2023/07/27 02:02:44;;;;;;;8.10;6.00;;;;;;;19.47;86.02;97473.19;105692;1254;61246;-23
2023/07/27 02:05:11;;;;;;;9.90;6.20;;;;;;;19.30;86.78;97462.89;105857;1256;61193;-22
2023/07/27 02:07:38;;;;;;;7.80;6.10;;;;;;;18.97;88.59;97453.23;105844;1258;73518;-22
2023/07/27 02:10:05;;;;;;;6.40;4.50;;;;;;;18.89;88.63;97447.80;105821;1256;74327;-22
2023/07/27 02:12:38;;;;;;;8.80;5.40;;;;;;;19.31;87.45;97444.60;105703;1254;72737;-22
2023/07/27 02:15:09;;;;;;;8.90;5.40;;;;;;;19.60;85.66;97439.21;105528;1254;61101;-22
2023/07/27 02:17:46;;;;;;;7.30;5.70;;;;;;;19.46;86.01;97442.91;105717;1260;61106;-23
2023/07/27 02:20:14;;;;;;;9.50;6.80;;;;;;;19.31;86.47;97442.49;105862;1254;73635;-22
2023/07/27 02:22:41;;;;;;;6.40;4.40;;;;;;;19.13;87.33;97448.17;105714;1259;74362;-22
2023/07/27 02:25:08;;;;;;;6.30;5.00;;;;;;;19.39;87.19;97445.92;105806;1259;72650;-22
2023/07/27 02:27:35;;;;;;;6.40;5.30;;;;;;;19.51;86.73;97449.84;105700;1254;61182;-23
2023/07/27 02:30:03;;;;;;;10.00;5.70;;;;;;;19.54;86.01;97453.45;105651;1260;61189;-23
2023/07/27 02:32:30;;;;;;;5.90;5.20;;;;;;;19.33;86.25;97459.23;105820;1256;73846;-23
2023/07/27 02:34:57;;;;;;;7.70;3.80;;;;;;;19.14;87.41;97470.36;105819;1257;74694;-22
2023/07/27 02:37:24;;;;;;;5.10;3.70;;;;;;;19.46;86.96;97474.31;105735;1255;72584;-22
2023/07/27 02:39:51;;;;;;;5.30;3.60;;;;;;;19.72;85.27;97479.71;105782;1252;61147;-23
2023/07/27 02:42:18;;;;;;;7.80;3.90;;;;;;;19.65;85.04;97484.23;105711;1255;61138;-24
2023/07/27 02:44:48;;;;;;;4.30;3.40;;;;;;;19.44;85.63;97489.03;105855;1256;73673;-22
2023/07/27 02:47:14;;;;;;;5.90;3.00;;;;;;;19.22;86.94;97491.05;105806;1256;74136;-22
2023/07/27 02:49:42;;;;;;;5.80;3.70;;;;;;;19.51;86.66;97490.28;105804;1255;72672;-22
2023/07/27 02:52:09;;;;;;;3.60;3.30;;;;;;;19.77;85.34;97497.61;105700;1257;61189;-22
2023/07/27 02:54:37;;;;;;;5.30;4.20;;;;;;;19.60;85.58;97501.88;105850;1254;61093;-22
2023/07/27 02:57:04;;;;;;;6.30;4.40;;;;;;;19.33;86.95;97503.23;105891;1256;74334;-22
2023/07/27 02:59:41;;;;;;;5.70;3.40;;;;;;;19.07;88.47;97497.33;105632;1259;74286;-22
2023/07/27 03:02:08;;;;;;;4.80;3.40;;;;;;;19.29;87.98;97494.39;105632;1254;72668;-23
2023/07/27 03:04:37;;;;;;;4.70;3.10;;;;;;;19.38;86.72;97499.12;105500;1257;61061;-22
2023/07/27 03:07:07;;;;;;;3.70;2.90;;;;;;;19.26;86.91;97500.92;105747;1262;61125;-22
2023/07/27 03:09:34;;;;;;;2.40;1.90;;;;;;;19.04;87.12;97502.35;105951;1256;73781;-24
2023/07/27 03:12:01;;;;;;;2.40;1.80;;;;;;;19.00;87.73;97503.96;105705;1262;74097;-23
2023/07/27 03:14:28;;;;;;;2.30;1.80;;;;;;;19.14;86.16;97506.39;105816;1257;73178;-23
2023/07/27 03:16:55;;;;;;;2.00;1.70;;;;;;;18.97;86.57;97515.30;105684;1254;61201;-23
2023/07/27 03:19:22;;;;;;;2.60;1.60;;;;;;;18.74;87.44;97521.23;105630;1254;61100;-23
2023/07/27 03:21:49;;;;;;;2.00;1.20;;;;;;;18.49;89.10;97523.35;105677;1256;73629;-23
2023/07/27 03:24:17;;;;;;;3.00;1.10;;;;;;;18.65;87.56;97517.50;105628;1257;74222;-23
2023/07/27 03:26:44;;;;;;;1.70;1.10;;;;;;;18.58;85.98;97514.11;105786;1257;72742;-23
2023/07/27 03:29:11;;;;;;;2.00;1.50;;;;;;;18.36;86.42;97520.60;105635;1255;61145;-23
2023/07/27 03:31:38;;;;;;;1.30;1.20;;;;;;;18.08;87.38;97519.98;105883;1257;61125;-23
2023/07/27 03:34:05;;;;;;;1.00;0.90;;;;;;;17.87;88.91;97519.23;105666;1257;74343;-23
2023/07/27 03:36:32;;;;;;;1.90;1.20;;;;;;;18.09;87.48;97521.71;105705;1256;74060;-23
2023/07/27 03:39:00;;;;;;;2.60;1.00;;;;;;;18.09;86.69;97518.34;105564;1253;72672;-23
2023/07/27 03:41:26;;;;;;;2.40;0.80;;;;;;;17.78;87.81;97517.02;105702;1253;61048;-23
2023/07/27 03:43:53;;;;;;;0.50;0.50;;;;;;;17.50;88.90;97518.98;105698;1256;61237;-23
2023/07/27 03:46:20;;;;;;;0.70;0.60;;;;;;;17.54;89.33;97523.98;105817;1254;73836;-23
2023/07/27 03:48:49;;;;;;;0.70;0.60;;;;;;;17.54;89.05;97522.41;105853;1257;74313;-23
2023/07/27 03:51:15;;;;;;;0.90;0.30;;;;;;;17.51;88.78;97528.80;105482;1259;72519;-23
2023/07/27 03:53:42;;;;;;;0.80;0.60;;;;;;;17.36;89.96;97532.53;105884;1254;61146;-24
2023/07/27 03:56:09;;;;;;;0.70;0.40;;;;;;;17.34;90.28;97535.65;105802;1253;61170;-23
2023/07/27 03:58:36;;;;;;;0.40;0.40;;;;;;;17.57;88.78;97530.34;105803;1258;73624;-23
2023/07/27 04:01:03;;;;;;;2.20;0.30;;;;;;;17.52;88.27;97527.42;105845;1256;74418;-23
2023/07/27 04:03:30;;;;;;;0.60;0.30;;;;;;;17.27;89.56;97527.77;105829;1254;72600;-24
2023/07/27 04:05:56;;;;;;;0.20;0.20;;;;;;;17.16;91.03;97540.08;105764;1259;61088;-23
2023/07/27 04:08:23;;;;;;;2.30;0.40;;;;;;;17.24;91.43;97539.11;105653;1266;61602;-23
2023/07/27 04:10:50;;;;;;;0.60;0.30;;;;;;;17.54;89.05;97538.92;105647;1256;73922;-23
2023/07/27 04:13:17;;;;;;;0.90;0.30;;;;;;;17.46;87.76;97537.95;105876;1255;74251;-23
2023/07/27 04:15:44;;;;;;;2.90;0.30;;;;;;;17.23;87.90;97537.14;105856;1256;73263;-23
2023/07/27 04:18:11;;;;;;;1.10;0.30;;;;;;;16.82;89.11;97540.21;105372;1257;61788;-23
2023/07/27 04:20:38;;;;;;;0.50;0.40;;;;;;;17.04;87.30;97523.61;105481;1257;61147;-23
2023/07/27 04:23:05;;;;;;;3.90;0.30;;;;;;;17.08;86.20;97535.17;105537;1259;73626;-23
2023/07/27 04:25:31;;;;;;;0.50;0.30;;;;;;;16.98;86.56;97540.39;105825;1256;74183;-23
2023/07/27 04:27:58;;;;;;;0.50;0.40;;;;;;;16.64;87.58;97546.39;105636;1253;72643;-23
2023/07/27 04:30:25;;;;;;;0.80;0.40;;;;;;;16.53;88.32;97543.92;105815;1256;61060;-23
2023/07/27 04:32:52;;;;;;;0.40;0.40;;;;;;;16.72;87.25;97546.92;105870;1263;61234;-24
2023/07/27 04:35:19;;;;;;;0.90;0.60;;;;;;;16.67;86.54;97540.58;105896;1257;74353;-23
2023/07/27 04:37:46;;;;;;;1.00;0.60;;;;;;;16.49;86.86;97536.52;105943;1257;73892;-23
2023/07/27 04:40:14;;;;;;;0.80;0.60;;;;;;;16.25;87.88;97543.52;105841;1260;72659;-23
2023/07/27 04:42:41;;;;;;;0.60;0.60;;;;;;;16.46;87.58;97555.74;105544;1254;61061;-23
2023/07/27 04:45:09;;;;;;;2.60;0.60;;;;;;;16.65;86.78;97558.40;105661;1256;61093;-23
2023/07/27 04:47:36;;;;;;;1.40;0.60;;;;;;;16.61;86.66;97563.25;105887;1259;72691;-23
2023/07/27 04:50:04;;;;;;;0.50;0.40;;;;;;;16.43;87.18;97564.73;105868;1264;74591;-23
2023/07/27 04:52:31;;;;;;;0.50;0.50;;;;;;;16.36;87.97;97573.15;105624;1257;72667;-23
2023/07/27 04:54:58;;;;;;;0.60;0.50;;;;;;;16.61;87.16;97582.61;105873;1257;61054;-23
2023/07/27 04:57:25;;;;;;;0.50;0.50;;;;;;;16.64;86.69;97592.13;105914;1256;61233;-23
2023/07/27 04:59:51;;;;;;;0.90;0.60;;;;;;;16.35;87.53;97591.58;105882;1257;73723;-24
2023/07/27 05:02:18;;;;;;;0.70;0.50;;;;;;;16.16;88.42;97603.23;105731;1260;74127;-23
2023/07/27 05:04:45;;;;;;;1.40;0.90;;;;;;;16.33;87.88;97599.77;105785;1254;72885;-23
2023/07/27 05:07:12;;;;;;;0.80;0.80;;;;;;;16.33;87.45;97602.72;105637;1254;61035;-23
2023/07/27 05:09:39;;;;;;;1.50;1.10;;;;;;;16.20;87.63;97605.52;105913;1256;61240;-23
2023/07/27 05:12:06;;;;;;;1.60;0.80;;;;;;;15.98;88.50;97601.89;105893;1256;73723;-23
2023/07/27 05:14:33;;;;;;;1.10;1.00;;;;;;;15.91;89.41;97608.41;105878;1256;74281;-23
2023/07/27 05:17:00;;;;;;;4.30;0.90;;;;;;;16.24;87.34;97609.48;105647;1253;71689;-23
2023/07/27 05:19:26;;;;;;;1.10;1.00;;;;;;;16.24;86.89;97605.64;105767;1257;61147;-23
2023/07/27 05:21:53;;;;;;;0.90;0.80;;;;;;;16.00;87.19;97602.48;105827;1253;61179;-24
2023/07/27 05:24:20;;;;;;;1.00;0.70;;;;;;;15.90;88.23;97608.50;105908;1257;73856;-23
2023/07/27 05:26:47;;;;;;;1.70;1.00;;;;;;;16.23;86.83;97603.58;105925;1254;74380;-23
2023/07/27 05:29:14;;;;;;;2.50;0.90;;;;;;;16.34;85.84;97598.09;105850;1257;72623;-23
2023/07/27 05:31:40;;;;;;;1.10;1.00;;;;;;;16.30;85.97;97604.33;105845;1254;61236;-23
2023/07/27 05:34:08;;;;;;;2.10;0.80;;;;;;;16.16;86.52;97605.61;105939;1256;61105;-23
2023/07/27 05:36:36;;;;;;;0.80;0.80;;;;;;;16.11;87.24;97605.52;105733;1257;73852;-22
2023/07/27 05:39:05;;;;;;;2.90;0.90;;;;;;;16.36;85.97;97599.02;105626;1258;74298;-22
2023/07/27 05:41:32;;;;;;;2.20;0.80;;;;;;;16.32;84.75;97599.65;105608;1253;72661;-23
2023/07/27 05:43:59;;;;;;;0.80;0.80;;;;;;;16.19;85.34;97605.42;105579;1257;61074;-23
2023/07/27 05:46:26;;;;;;;0.50;0.50;;;;;;;16.02;86.28;97610.81;105677;1256;61109;-23
2023/07/27 05:48:53;;;;;;;1.60;0.70;;;;;;;16.08;86.15;97609.05;105581;1256;74378;-22
2023/07/27 05:51:20;;;;;;;0.90;0.80;;;;;;;16.33;84.68;97612.05;105581;1257;73387;-22
2023/07/27 05:53:47;;;;;;;3.80;1.00;;;;;;;16.28;84.45;97621.74;105621;1253;72468;-22
2023/07/27 05:56:14;;;;;;;1.00;0.90;;;;;;;16.12;85.16;97618.33;105700;1257;61106;-23
2023/07/27 05:58:42;;;;;;;0.80;0.60;;;;;;;15.95;86.21;97620.99;105644;1260;61196;-23
2023/07/27 06:01:09;;;;;;;2.70;0.90;;;;;;;16.23;85.53;97619.10;105715;1256;73775;-23
2023/07/27 06:03:36;;;;;;;1.60;1.20;;;;;;;16.41;84.30;97623.44;105924;1256;74737;-22
2023/07/27 06:06:03;;;;;;;1.80;1.30;;;;;;;16.12;85.08;97623.09;105865;1254;72598;-22
2023/07/27 06:08:30;;;;;;;6.70;1.30;;;;;;;15.96;85.68;97634.85;105916;1254;61052;-23
2023/07/27 06:11:06;;;;;;;4.50;1.40;;;;;;;15.81;86.63;97636.86;105880;1257;61275;-22
2023/07/27 06:13:33;;;;;;;1.90;1.50;;;;;;;15.88;86.29;97628.85;105702;1257;72493;-22
2023/07/27 06:16:00;;;;;;;3.40;1.90;;;;;;;15.96;85.97;97634.33;105908;1255;74399;-23
2023/07/27 06:18:28;;;;;;;4.10;1.80;;;;;;;15.81;86.51;97632.25;105711;1253;73606;-23
2023/07/27 06:20:55;;;;;;;1.70;1.20;;;;;;;15.66;87.52;97637.56;105818;1254;61070;-23
2023/07/27 06:23:22;;;;;;;1.40;1.30;;;;;;;15.81;87.54;97635.52;105796;1252;61122;-23
2023/07/27 06:25:49;;;;;;;1.20;1.10;;;;;;;16.08;86.61;97647.23;105917;1255;73785;-23
2023/07/27 06:28:16;;;;;;;1.90;1.20;;;;;;;16.18;85.95;97646.42;105819;1254;74151;-23
2023/07/27 06:30:45;;;;;;;1.60;1.30;;;;;;;15.85;87.57;97645.48;105532;1254;73237;-23
2023/07/27 06:33:12;;;;;;;1.20;1.10;;;;;;;15.79;88.37;97645.03;105573;1257;62045;-23
2023/07/27 06:35:39;;;;;;;1.10;1.00;;;;;;;16.14;87.69;97644.39;105613;1257;61134;-24
2023/07/27 06:38:07;;;;;;;1.00;0.70;;;;;;;16.28;87.18;97644.57;105802;1254;73804;-23
2023/07/27 06:40:34;;;;;;;4.60;1.40;;;;;;;16.08;87.17;97638.58;105619;1254;73761;-23
2023/07/27 06:43:00;;;;;;;1.20;0.80;;;;;;;15.81;88.50;97632.73;105903;1266;71687;-23
2023/07/27 06:45:28;;;;;;;1.20;1.00;;;;;;;15.92;89.14;97634.38;105840;1255;61131;-23
2023/07/27 06:47:55;;;;;;;1.10;1.00;;;;;;;16.27;86.96;97631.55;105625;1257;61103;-23
2023/07/27 06:50:22;;;;;;;2.70;1.40;;;;;;;16.22;86.69;97638.23;105849;1256;73736;-23
2023/07/27 06:52:49;;;;;;;1.20;1.10;;;;;;;16.12;87.23;97642.08;105919;1254;74151;-23
2023/07/27 06:55:17;;;;;;;0.90;0.70;;;;;;;16.02;88.05;97647.48;105868;1257;73203;-23
2023/07/27 06:57:44;;;;;;;1.80;0.80;;;;;;;16.40;86.94;97645.09;105841;1254;61119;-23
2023/07/27 07:00:12;;;;;;;1.60;0.90;;;;;;;16.53;85.07;97651.33;105903;1252;61160;-24
2023/07/27 07:02:39;;;;;;;1.20;1.10;;;;;;;16.52;85.47;97646.38;105884;1254;73636;-23
2023/07/27 07:05:07;;;;;;;0.80;0.80;;;;;;;16.37;85.86;97647.38;105874;1257;74392;-23
2023/07/27 07:07:35;;;;;;;1.50;0.70;;;;;;;16.12;86.98;97641.67;105834;1256;72608;-23
2023/07/27 07:10:02;;;;;;;0.90;0.80;;;;;;;16.27;86.43;97643.62;105693;1254;60990;-24
2023/07/27 07:12:29;;;;;;;1.10;0.80;;;;;;;16.31;86.24;97647.20;105715;1257;61772;-23
2023/07/27 07:14:56;;;;;;;0.90;0.80;;;;;;;16.29;87.39;97651.96;105738;1257;74024;-23
2023/07/27 07:17:23;;;;;;;0.80;0.60;;;;;;;15.94;88.85;97654.45;105587;1257;74344;-23
2023/07/27 07:19:50;;;;;;;0.60;0.60;;;;;;;15.95;89.68;97653.14;105679;1254;73004;-23
2023/07/27 07:22:17;;;;;;;1.20;0.60;;;;;;;16.19;87.53;97654.07;105692;1253;61165;-23
2023/07/27 07:24:44;;;;;;;0.90;0.60;;;;;;;16.30;86.87;97656.45;105619;1256;61153;-23
2023/07/27 07:27:11;;;;;;;0.60;0.60;;;;;;;16.24;86.81;97660.63;105706;1257;73792;-23
2023/07/27 07:29:39;;;;;;;0.50;0.50;;;;;;;16.22;86.95;97660.14;105744;1256;74482;-23
2023/07/27 07:32:06;;;;;;;1.50;0.50;;;;;;;16.54;85.11;97670.97;105626;1257;72747;-23
2023/07/27 07:34:35;;;;;;;1.60;0.60;;;;;;;16.73;83.03;97679.55;105625;1254;61109;-23
2023/07/27 07:37:02;;;;;;;1.60;0.60;;;;;;;16.48;82.84;97685.21;105839;1257;61280;-23
2023/07/27 07:39:29;;;;;;;3.60;0.80;;;;;;;16.29;83.48;97693.10;105897;1255;73885;-23
2023/07/27 07:41:56;;;;;;;0.70;0.50;;;;;;;16.12;84.32;97690.66;105841;1254;74271;-23
2023/07/27 07:44:23;;;;;;;2.20;0.60;;;;;;;16.33;83.64;97706.95;105842;1254;72871;-25
2023/07/27 07:46:50;;;;;;;0.40;0.40;;;;;;;16.50;82.67;97714.16;105653;1257;61178;-24
2023/07/27 07:49:17;;;;;;;0.30;0.30;;;;;;;16.28;83.83;97713.83;105889;1256;61097;-24
2023/07/27 07:51:45;;;;;;;0.50;0.40;;;;;;;16.02;85.84;97716.31;105884;1254;73805;-23
2023/07/27 07:54:11;;;;;;;0.70;0.40;;;;;;;15.82;87.08;97704.82;105663;1254;74396;-23
2023/07/27 07:56:38;;;;;;;0.90;0.40;;;;;;;15.97;85.36;97705.45;105827;1254;72597;-23
2023/07/27 07:59:05;;;;;;;0.90;0.60;;;;;;;16.25;84.14;97716.44;105563;1254;61173;-24
2023/07/27 08:01:33;;;;;;;1.20;0.50;;;;;;;16.21;83.12;97711.61;105579;1257;61124;-24
2023/07/27 08:04:00;;;;;;;0.80;0.40;;;;;;;16.13;84.00;97712.58;105780;1254;73514;-24
2023/07/27 08:06:27;;;;;;;2.70;0.40;;;;;;;16.07;83.85;97714.32;105822;1255;74397;-25
2023/07/27 08:08:54;;;;;;;0.50;0.40;;;;;;;16.41;82.47;97714.23;105645;1254;73254;-24
2023/07/27 08:11:21;;;;;;;0.50;0.40;;;;;;;16.30;80.87;97700.63;105742;1258;61166;-23
2023/07/27 08:13:48;;;;;;;0.80;0.50;;;;;;;16.05;81.53;97707.73;105861;1254;61154;-23
2023/07/27 08:16:15;;;;;;;0.40;0.40;;;;;;;16.03;81.42;97711.95;105706;1254;73787;-24
2023/07/27 08:18:42;;;;;;;0.40;0.40;;;;;;;15.80;82.01;97709.11;105604;1258;74174;-24
2023/07/27 08:21:09;;;;;;;1.10;0.60;;;;;;;15.99;81.92;97719.06;105569;1254;72584;-24
2023/07/27 08:23:36;;;;;;;0.40;0.40;;;;;;;16.19;79.93;97709.65;105642;1254;61143;-24
2023/07/27 08:26:07;;;;;;;0.40;0.40;;;;;;;16.22;80.27;97718.16;105615;1257;61140;-25
2023/07/27 08:28:34;;;;;;;0.90;0.50;;;;;;;16.14;80.86;97721.92;105648;1254;73818;-24
2023/07/27 08:31:04;;;;;;;0.30;0.30;;;;;;;15.94;81.32;97731.24;105924;1254;74310;-24
2023/07/27 08:33:32;;;;;;;0.70;0.50;;;;;;;15.97;80.73;97716.80;105724;1257;72478;-24
2023/07/27 08:36:03;;;;;;;0.30;0.30;;;;;;;16.10;80.40;97737.48;105823;1255;61194;-24
2023/07/27 08:38:31;;;;;;;0.70;0.40;;;;;;;16.25;79.46;97726.58;105642;1254;61184;-23
2023/07/27 08:40:59;;;;;;;2.60;0.40;;;;;;;16.19;79.51;97727.02;105602;1254;73719;-23
2023/07/27 08:43:27;;;;;;;0.60;0.60;;;;;;;16.11;79.81;97732.23;105558;1260;74163;-23
2023/07/27 08:45:54;;;;;;;0.50;0.30;;;;;;;16.00;80.74;97748.33;105726;1254;72522;-23
2023/07/27 08:48:23;;;;;;;4.10;0.50;;;;;;;16.20;80.90;97752.65;105917;1254;61125;-23
2023/07/27 08:50:50;;;;;;;2.40;0.70;;;;;;;16.33;80.49;97766.61;105885;1257;61160;-23
2023/07/27 08:53:18;;;;;;;1.40;0.50;;;;;;;16.08;82.26;97774.87;105879;1254;74223;-23
2023/07/27 08:55:45;;;;;;;0.90;0.50;;;;;;;15.99;82.96;97778.01;105710;1255;74365;-23
2023/07/27 08:58:11;;;;;;;0.70;0.40;;;;;;;15.88;82.42;97775.37;105885;1257;72528;-24
2023/07/27 09:00:38;;;;;;;0.80;0.40;;;;;;;15.99;81.77;97768.75;105908;1252;61138;-22
2023/07/27 09:03:07;;;;;;;0.60;0.40;;;;;;;16.13;81.56;97771.71;105856;1257;61127;-22
2023/07/27 09:05:59;;;;;;;1.00;0.40;;;;;;;15.99;81.52;97772.88;105885;1254;73987;-23
2023/07/27 09:08:28;;;;;;;2.20;0.50;;;;;;;15.99;83.09;97775.61;105932;1254;74622;-24
2023/07/27 09:10:55;;;;;;;1.20;0.40;;;;;;;15.92;83.21;97776.34;105739;1259;70106;-23
2023/07/27 09:13:29;;;;;;;0.30;0.30;;;;;;;16.17;81.64;97777.56;105756;1254;61089;-23
2023/07/27 09:15:56;;;;;;;3.00;0.60;;;;;;;16.27;80.21;97781.05;105690;1254;62686;-23
2023/07/27 09:18:24;;;;;;;1.10;0.50;;;;;;;16.23;79.29;97774.81;105935;1254;73597;-24
2023/07/27 09:20:50;;;;;;;1.10;0.30;;;;;;;16.13;79.80;97774.66;105915;1254;74159;-23
2023/07/27 09:23:21;;;;;;;0.50;0.40;;;;;;;15.99;80.46;97781.17;105842;1254;72622;-24
2023/07/27 09:25:54;;;;;;;0.60;0.50;;;;;;;16.08;81.61;97790.52;105624;1255;61990;-23
2023/07/27 09:28:24;;;;;;;;;;;;;;;16.27;82.12;97795.52;105633;1254;61046;-24
2023/07/27 09:30:52;;;;;;;0.30;0.30;;;;;;;16.00;83.33;97800.66;105704;1254;73911;-23
2023/07/27 09:33:22;;;;;;;0.30;0.30;;;;;;;15.80;84.80;97809.02;105885;1255;72924;-23
2023/07/27 09:35:50;;;;;;;0.30;0.30;;;;;;;15.54;86.19;97808.50;105699;1255;72948;-23
2023/07/27 09:38:24;;;;;;;0.70;0.30;;;;;;;15.41;86.62;97803.70;105781;1257;61888;-23
2023/07/27 09:40:51;;;;;;;0.30;0.30;;;;;;;15.79;84.70;97807.67;105748;1252;60941;-23
2023/07/27 09:43:18;;;;;;;2.90;0.40;;;;;;;15.88;83.93;97811.52;103808;1256;2863927;-23
2023/07/27 09:45:45;;;;;;;0.40;0.40;;;;;;;15.79;83.06;97798.66;105718;1254;74903;-23
2023/07/27 09:48:12;;;;;;;0.20;0.20;;;;;;;15.72;83.04;97801.23;105854;1254;72494;-23
2023/07/27 09:50:39;;;;;;;1.00;0.30;;;;;;;15.65;83.60;97802.06;105488;1256;61772;-23
2023/07/27 09:53:06;;;;;;;0.40;0.30;;;;;;;15.95;81.96;97809.27;105573;1257;61333;-23
2023/07/27 09:55:33;;;;;;;0.30;0.30;;;;;;;15.83;81.27;97806.17;105807;1257;73597;-23
2023/07/27 09:58:00;;;;;;;0.20;0.20;;;;;;;15.65;82.60;97807.48;105653;1256;74251;-23
2023/07/27 10:00:29;;;;;;;0.30;0.30;;;;;;;15.48;83.24;97793.63;105278;1254;72645;-23
2023/07/27 10:02:56;;;;;;;0.40;0.30;;;;;;;15.49;83.73;97801.79;105548;1254;61166;-23
2023/07/27 10:05:38;;;;;;;0.40;0.30;;;;;;;15.69;83.20;97801.80;105503;1259;61160;-23
2023/07/27 10:08:05;;;;;;;0.30;0.30;;;;;;;15.74;82.41;97798.78;105762;1257;73792;-23
2023/07/27 10:10:32;;;;;;;0.60;0.50;;;;;;;15.65;82.52;97801.17;105562;1259;74280;-23
2023/07/27 10:13:25;;;;;;;0.30;0.30;;;;;;;15.60;82.52;97801.09;105752;1254;72448;-23
2023/07/27 10:15:53;;;;;;;1.60;0.40;;;;;;;15.97;81.27;97806.91;105475;1254;61202;-23
2023/07/27 10:18:24;;;;;;;0.30;0.30;;;;;;;16.07;80.89;97811.99;105654;1258;61058;-23
2023/07/27 10:20:51;;;;;;;1.90;0.50;;;;;;;16.06;80.93;97812.90;105460;1254;73961;-23
2023/07/27 10:23:32;;;;;;;0.30;0.30;;;;;;;15.80;81.85;97818.96;105542;1253;74290;-24
2023/07/27 10:26:02;;;;;;;1.80;0.50;;;;;;;15.57;82.46;97817.36;105626;1254;73400;-24
2023/07/27 10:28:43;;;;;;;0.40;0.40;;;;;;;15.87;81.90;97814.86;105592;1254;62253;-24
2023/07/27 10:31:14;;;;;;;0.50;0.40;;;;;;;16.20;80.92;97820.60;105526;1260;61150;-24
2023/07/27 10:34:07;;;;;;;1.00;0.70;;;;;;;15.96;81.15;97818.23;105694;1256;73525;-23
2023/07/27 10:36:47;;;;;;;0.60;0.50;;;;;;;15.70;82.56;97822.13;105843;1256;74236;-23
2023/07/27 10:39:15;;;;;;;0.40;0.40;;;;;;;15.54;83.34;97833.27;105628;1254;71255;-24
2023/07/27 10:42:08;;;;;;;1.10;0.50;;;;;;;15.82;82.23;97835.89;105616;1256;62524;-24
2023/07/27 10:44:50;;;;;;;0.40;0.40;;;;;;;15.97;80.12;97834.61;105823;1257;61151;-24
2023/07/27 10:47:27;;;;;;;1.00;0.50;;;;;;;15.96;79.99;97842.60;105655;1254;73689;-24
2023/07/27 10:49:56;;;;;;;1.80;0.70;;;;;;;15.70;80.94;97844.88;105673;1254;74356;-24
2023/07/27 10:52:24;;;;;;;1.50;0.60;;;;;;;15.48;82.06;97842.50;105681;1259;72701;-23
2023/07/27 10:54:52;;;;;;;0.40;0.40;;;;;;;15.62;81.45;97833.56;105698;1252;61113;-24
2023/07/27 10:57:19;;;;;;;1.40;0.60;;;;;;;15.91;80.44;97835.54;105784;1258;61055;-24
2023/07/27 10:59:48;;;;;;;1.70;0.70;;;;;;;15.76;80.13;97834.37;105766;1254;74397;-24
2023/07/27 11:02:36;;;;;;;1.20;0.60;;;;;;;15.61;81.29;97846.70;105711;1254;74379;-23
2023/07/27 11:05:06;;;;;;;0.60;0.50;;;;;;;15.52;81.80;97855.37;105918;1254;72419;-23
2023/07/27 11:07:34;;;;;;;2.40;0.70;;;;;;;15.76;81.53;97874.06;105715;1254;61166;-22
2023/07/27 11:12:19;;;;;;;2.30;0.70;;;;;;;15.94;80.57;97886.98;102665;1293;600929;-21
2023/07/27 11:14:47;;;;;;;0.70;0.60;;;;;;;15.69;81.08;97899.34;105041;1265;61074;-21
2023/07/27 11:17:14;;;;;;;1.30;0.60;;;;;;;15.61;81.93;97893.38;105031;1265;61182;-23
2023/07/27 11:19:42;;;;;;;1.40;0.70;;;;;;;15.79;81.55;97888.19;105716;1260;72184;-22
2023/07/27 11:22:11;;;;;;;1.00;0.60;;;;;;;16.12;79.76;97885.30;105667;1258;75218;-22
2023/07/27 11:24:41;;;;;;;1.60;0.90;;;;;;;16.25;78.82;97877.78;105687;1257;72723;-22
2023/07/27 11:27:10;;;;;;;0.60;0.60;;;;;;;16.07;78.65;97876.42;103965;1252;61592;-22
2023/07/27 11:29:45;;;;;;;1.40;0.80;;;;;;;15.92;79.31;97882.44;105547;1254;61036;-22
2023/07/27 11:40:21;;;;;;;5.50;1.00;;;;;;;15.74;78.61;97874.52;102497;1295;616223;-23